Time;durP1;ratioP1;P1;durP2;ratioP2;P2;SDS_P1;SDS_P2;PMS_P1;PMS_P2;Temp;Humidity;BMP_temperature;BMP_pressure;BME280_temperature;BME280_humidity;BME280_pressure;Samples;Min_cycle;Max_cycle;Signal;HPM_P1;HPM_P2
2023/12/23 00:01:24;;;;;;;9.93;1.90;;;9.80;99.90;;;;;;5086703;28;20465;-49
2023/12/23 00:03:49;;;;;;;11.73;1.73;;;9.80;99.90;;;;;;5087925;28;20049;-50
2023/12/23 00:06:15;;;;;;;7.47;1.50;;;9.80;99.90;;;;;;5086710;28;20111;-50
2023/12/23 00:08:40;;;;;;;10.85;1.80;;;9.80;99.90;;;;;;5087608;28;20081;-50
2023/12/23 00:11:06;;;;;;;9.20;1.67;;;9.80;99.90;;;;;;5087535;28;20033;-50
2023/12/23 00:13:32;;;;;;;10.73;1.63;;;9.70;99.90;;;;;;5086272;28;20031;-51
2023/12/23 00:15:57;;;;;;;10.45;1.45;;;9.70;99.90;;;;;;5087507;28;20067;-50
2023/12/23 00:18:23;;;;;;;16.00;1.80;;;9.70;99.90;;;;;;5069415;28;20025;-50
2023/12/23 00:20:48;;;;;;;9.77;1.60;;;9.70;99.90;;;;;;5086343;28;20024;-50
2023/12/23 00:23:14;;;;;;;4.65;1.23;;;9.70;99.90;;;;;;5087653;28;20076;-50
2023/12/23 00:25:40;;;;;;;8.40;1.73;;;9.70;99.90;;;;;;5087639;28;20103;-50
2023/12/23 00:28:06;;;;;;;13.10;1.20;;;9.70;99.90;;;;;;5086423;28;20056;-50
2023/12/23 00:30:31;;;;;;;5.53;1.13;;;9.70;99.90;;;;;;5086020;28;20032;-50
2023/12/23 00:32:57;;;;;;;4.82;0.90;;;9.70;99.90;;;;;;5086164;28;20112;-50
2023/12/23 00:35:23;;;;;;;5.95;1.10;;;9.70;99.90;;;;;;5085713;28;20045;-50
2023/12/23 00:37:49;;;;;;;5.80;1.00;;;9.70;99.90;;;;;;5087238;28;20484;-50
2023/12/23 00:40:15;;;;;;;8.43;1.20;;;9.70;99.90;;;;;;5085950;28;20033;-50
2023/12/23 00:42:40;;;;;;;6.15;0.88;;;9.60;99.90;;;;;;5087285;28;20035;-50
2023/12/23 00:45:06;;;;;;;3.58;1.23;;;9.70;99.90;;;;;;5085676;28;20476;-50
2023/12/23 00:47:32;;;;;;;7.55;0.93;;;9.60;99.90;;;;;;5085754;28;20033;-50
2023/12/23 00:49:57;;;;;;;4.72;0.82;;;9.60;99.90;;;;;;5087133;28;20084;-50
2023/12/23 00:52:23;;;;;;;6.13;1.17;;;9.60;99.90;;;;;;5085712;28;20036;-50
2023/12/23 00:54:48;;;;;;;8.10;1.05;;;9.60;99.90;;;;;;5086881;28;20036;-50
2023/12/23 00:57:14;;;;;;;2.50;0.70;;;9.60;99.90;;;;;;5086925;28;20025;-50
2023/12/23 00:59:40;;;;;;;5.05;1.27;;;9.60;99.90;;;;;;5085604;28;20035;-50
2023/12/23 01:02:05;;;;;;;3.33;0.90;;;9.60;99.90;;;;;;5087000;28;20032;-50
2023/12/23 01:04:31;;;;;;;3.28;0.70;;;9.60;99.90;;;;;;5086676;28;20029;-50
2023/12/23 01:06:56;;;;;;;3.10;0.80;;;9.60;99.90;;;;;;5085670;28;20029;-50
2023/12/23 01:09:22;;;;;;;2.53;0.93;;;9.60;99.90;;;;;;5085364;28;20029;-50
2023/12/23 01:11:48;;;;;;;1.85;0.57;;;9.60;99.90;;;;;;5086834;28;20032;-50
2023/12/23 01:14:13;;;;;;;4.35;0.90;;;9.60;99.90;;;;;;5085227;28;20035;-50
2023/12/23 01:16:39;;;;;;;2.67;0.73;;;9.60;99.90;;;;;;5086628;28;20035;-50
2023/12/23 01:19:04;;;;;;;3.92;0.70;;;9.60;99.90;;;;;;5085149;28;20388;-50
2023/12/23 01:21:30;;;;;;;2.80;0.95;;;9.60;99.90;;;;;;5084321;28;20067;-50
2023/12/23 01:23:55;;;;;;;4.88;1.02;;;9.50;99.90;;;;;;5086890;28;20024;-50
2023/12/23 01:26:21;;;;;;;2.97;0.80;;;9.50;99.90;;;;;;5085277;28;20033;-50
2023/12/23 01:28:47;;;;;;;3.88;0.77;;;9.50;99.90;;;;;;5085284;28;20031;-50
2023/12/23 01:31:13;;;;;;;3.38;0.80;;;9.60;99.90;;;;;;5086644;28;20056;-49
2023/12/23 01:33:38;;;;;;;2.05;0.60;;;9.50;99.90;;;;;;5086994;28;20035;-50
2023/12/23 01:36:05;;;;;;;3.08;0.70;;;9.50;99.90;;;;;;5086518;28;20464;-50
2023/12/23 01:38:33;;;;;;;1.08;0.45;;;9.50;99.90;;;;;;5085096;28;20025;-51
2023/12/23 01:40:58;;;;;;;3.95;0.80;;;9.60;99.90;;;;;;5085135;28;20082;-50
2023/12/23 01:43:24;;;;;;;4.13;0.60;;;9.60;99.90;;;;;;5084928;28;20028;-50
2023/12/23 01:45:50;;;;;;;1.77;0.65;;;9.50;99.90;;;;;;5068106;28;20028;-50
2023/12/23 01:48:15;;;;;;;2.10;0.43;;;9.50;99.90;;;;;;5085081;28;20032;-50
2023/12/23 01:50:41;;;;;;;5.47;0.68;;;9.50;99.90;;;;;;5086996;28;20047;-50
2023/12/23 01:53:07;;;;;;;0.77;0.30;;;9.50;99.90;;;;;;5085651;28;20055;-50
2023/12/23 01:55:32;;;;;;;2.35;0.50;;;9.50;99.90;;;;;;5067990;28;20031;-50
2023/12/23 01:57:58;;;;;;;3.38;0.68;;;9.50;99.90;;;;;;5086149;28;20029;-50
2023/12/23 02:00:24;;;;;;;2.05;0.47;;;9.50;99.90;;;;;;5084731;28;20095;-50
2023/12/23 02:02:49;;;;;;;2.55;0.50;;;9.50;99.90;;;;;;5086127;28;20025;-50
2023/12/23 02:05:15;;;;;;;1.85;0.50;;;9.50;99.90;;;;;;5084787;28;20035;-50
2023/12/23 02:07:44;;;;;;;0.65;0.38;;;9.50;99.90;;;;;;5068002;28;20029;-50
2023/12/23 02:10:10;;;;;;;2.13;0.50;;;9.50;99.90;;;;;;5086128;28;20031;-50
2023/12/23 02:13:05;;;;;;;3.08;0.50;;;9.50;99.90;;;;;;5084916;28;20028;-50
2023/12/23 02:15:31;;;;;;;1.15;0.52;;;9.40;99.90;;;;;;5084909;28;20021;-50
2023/12/23 02:18:00;;;;;;;0.93;0.43;;;9.40;99.90;;;;;;5084679;28;20043;-50
2023/12/23 02:20:26;;;;;;;2.05;0.65;;;9.50;99.90;;;;;;5084590;28;20025;-50
2023/12/23 02:22:51;;;;;;;1.15;0.35;;;9.40;99.90;;;;;;5085894;28;20029;-50
2023/12/23 02:25:17;;;;;;;2.10;0.35;;;9.40;99.90;;;;;;5084597;28;20081;-50
2023/12/23 02:27:50;;;;;;;1.27;0.60;;;9.40;99.90;;;;;;5084615;28;20048;-50
2023/12/23 02:30:15;;;;;;;0.50;0.30;;;9.40;99.90;;;;;;5085591;28;20028;-50
2023/12/23 02:32:41;;;;;;;0.55;0.38;;;9.40;99.90;;;;;;5084673;28;20496;-50
2023/12/23 02:35:07;;;;;;;1.95;0.40;;;9.40;99.90;;;;;;5086754;28;20028;-50
2023/12/23 02:37:32;;;;;;;1.73;0.47;;;9.40;99.90;;;;;;5088106;28;20052;-50
2023/12/23 02:39:59;;;;;;;0.90;0.30;;;9.40;99.90;;;;;;5088086;28;20025;-50
2023/12/23 02:42:25;;;;;;;1.58;0.13;;;9.40;99.90;;;;;;5087900;28;20021;-50
2023/12/23 02:44:50;;;;;;;0.60;0.40;;;9.40;99.90;;;;;;5088254;28;20021;-50
2023/12/23 02:47:16;;;;;;;0.85;0.38;;;9.40;99.90;;;;;;5089205;28;20491;-50
2023/12/23 02:49:41;;;;;;;3.03;0.30;;;9.40;99.90;;;;;;5088118;28;20025;-50
2023/12/23 02:52:07;;;;;;;1.23;0.20;;;9.40;99.90;;;;;;5089107;28;20571;-50
2023/12/23 02:54:32;;;;;;;0.55;0.25;;;9.40;99.90;;;;;;5088861;28;20214;-50
2023/12/23 02:56:58;;;;;;;1.80;0.30;;;9.40;99.90;;;;;;5089130;28;20075;-50
2023/12/23 02:59:23;;;;;;;1.90;0.30;;;9.30;99.90;;;;;;5089141;28;20032;-50
2023/12/23 03:01:49;;;;;;;0.70;0.20;;;9.40;99.90;;;;;;5089185;28;20056;-50
2023/12/23 03:04:15;;;;;;;0.85;0.28;;;9.40;99.90;;;;;;5078542;28;20021;-50
2023/12/23 03:06:40;;;;;;;1.05;0.38;;;9.30;99.90;;;;;;5067938;28;20044;-50
2023/12/23 03:09:06;;;;;;;0.70;0.20;;;9.30;99.90;;;;;;5069004;28;20025;-50
2023/12/23 03:11:32;;;;;;;1.27;0.28;;;9.30;99.90;;;;;;5067609;28;20051;-50
2023/12/23 03:13:57;;;;;;;1.27;0.30;;;9.30;99.90;;;;;;5067576;28;20055;-50
2023/12/23 03:16:23;;;;;;;3.40;0.30;;;9.30;99.90;;;;;;5068406;28;20041;-50
2023/12/23 03:18:49;;;;;;;0.95;0.25;;;9.30;99.90;;;;;;5067321;28;20070;-50
2023/12/23 03:21:14;;;;;;;0.43;0.35;;;9.30;99.90;;;;;;5067419;28;20389;-50
2023/12/23 03:23:40;;;;;;;1.35;0.40;;;9.30;99.90;;;;;;5050625;28;20104;-50
2023/12/23 03:26:07;;;;;;;1.55;0.40;;;9.30;99.90;;;;;;5067347;28;20067;-50
2023/12/23 03:28:32;;;;;;;0.63;0.30;;;9.30;99.90;;;;;;5067314;28;20028;-50
2023/12/23 03:30:58;;;;;;;0.52;0.40;;;9.30;99.90;;;;;;5068421;28;20060;-50
2023/12/23 03:33:24;;;;;;;0.77;0.38;;;9.30;99.90;;;;;;5067129;28;20025;-50
2023/12/23 03:35:49;;;;;;;0.60;0.20;;;9.30;99.90;;;;;;5068032;28;20036;-50
2023/12/23 03:38:15;;;;;;;2.58;0.45;;;9.30;99.90;;;;;;5067244;28;20093;-50
2023/12/23 03:40:40;;;;;;;0.50;0.50;;;9.30;99.90;;;;;;5067985;28;20550;-51
2023/12/23 03:43:06;;;;;;;1.27;0.57;;;9.30;99.90;;;;;;5066958;28;20021;-50
2023/12/23 03:45:32;;;;;;;0.70;0.55;;;9.30;99.90;;;;;;5067816;28;20048;-50
2023/12/23 03:47:57;;;;;;;0.47;0.30;;;9.30;99.90;;;;;;5068064;28;20052;-50
2023/12/23 03:50:23;;;;;;;0.85;0.30;;;9.30;99.90;;;;;;5050159;28;20032;-50
2023/12/23 03:52:48;;;;;;;0.60;0.40;;;9.30;99.90;;;;;;5066835;28;20029;-50
2023/12/23 03:55:14;;;;;;;0.17;0.17;;;9.30;99.90;;;;;;5067838;28;20029;-50
2023/12/23 03:57:39;;;;;;;2.50;0.55;;;9.30;99.90;;;;;;5067964;28;20055;-50
2023/12/23 04:00:06;;;;;;;0.68;0.50;;;9.20;99.90;;;;;;5068103;28;20100;-50
2023/12/23 04:02:32;;;;;;;1.80;0.47;;;9.20;99.90;;;;;;5066566;28;20404;-50
2023/12/23 04:04:58;;;;;;;0.43;0.40;;;9.20;99.90;;;;;;5067785;28;20033;-50
2023/12/23 04:07:23;;;;;;;0.55;0.20;;;9.20;99.90;;;;;;5066946;28;20041;-50
2023/12/23 04:09:49;;;;;;;1.10;0.50;;;9.20;99.90;;;;;;5066541;28;20036;-50
2023/12/23 04:12:14;;;;;;;0.52;0.30;;;9.20;99.90;;;;;;5067826;28;20045;-50
2023/12/23 04:14:40;;;;;;;1.10;0.50;;;9.20;99.90;;;;;;5066424;28;20052;-50
2023/12/23 04:17:06;;;;;;;2.70;0.20;;;9.20;99.90;;;;;;5067539;28;20061;-50
2023/12/23 04:19:32;;;;;;;3.08;0.30;;;9.20;99.90;;;;;;5066222;28;20029;-50
2023/12/23 04:21:58;;;;;;;0.63;0.22;;;9.20;99.90;;;;;;5067681;28;20044;-50
2023/12/23 04:24:26;;;;;;;0.30;0.20;;;9.20;99.90;;;;;;5049606;28;20056;-50
2023/12/23 04:26:52;;;;;;;0.35;0.28;;;9.20;99.90;;;;;;5067009;28;20058;-50
2023/12/23 04:29:17;;;;;;;0.40;0.22;;;9.20;99.90;;;;;;5066295;28;20025;-50
2023/12/23 04:31:43;;;;;;;1.25;0.30;;;9.10;99.90;;;;;;5066267;28;20033;-50
2023/12/23 04:34:10;;;;;;;0.30;0.22;;;9.10;99.90;;;;;;5067203;28;20477;-50
2023/12/23 04:36:36;;;;;;;0.15;0.10;;;9.10;99.90;;;;;;5065898;28;20033;-50
2023/12/23 04:39:05;;;;;;;0.45;0.20;;;9.10;99.90;;;;;;5067264;28;20084;-50
2023/12/23 04:41:32;;;;;;;0.25;0.25;;;9.10;99.90;;;;;;5049767;28;20021;-50
2023/12/23 04:43:57;;;;;;;1.00;0.38;;;9.10;99.90;;;;;;5067053;28;20047;-50
2023/12/23 04:46:23;;;;;;;0.20;0.20;;;9.10;99.90;;;;;;5065988;28;20032;-50
2023/12/23 04:48:48;;;;;;;0.45;0.38;;;9.10;99.90;;;;;;5065770;28;20060;-50
2023/12/23 04:51:14;;;;;;;1.10;0.20;;;9.10;99.90;;;;;;5065659;28;20040;-50
2023/12/23 04:53:39;;;;;;;0.20;0.20;;;9.10;99.90;;;;;;5065636;28;20029;-50
2023/12/23 04:56:05;;;;;;;0.30;0.10;;;9.10;99.90;;;;;;5066143;28;20033;-50
2023/12/23 04:58:31;;;;;;;0.38;0.20;;;9.10;99.90;;;;;;5065145;28;20025;-50
2023/12/23 05:00:56;;;;;;;0.40;0.25;;;9.10;99.90;;;;;;5065583;28;20489;-50
2023/12/23 05:03:22;;;;;;;0.20;0.20;;;9.10;99.90;;;;;;5066800;28;20017;-50
2023/12/23 05:05:47;;;;;;;0.57;0.40;;;9.10;99.90;;;;;;5066885;28;20064;-50
2023/12/23 05:08:16;;;;;;;0.77;0.60;;;9.10;99.90;;;;;;5065430;28;20037;-50
2023/12/23 05:10:43;;;;;;;1.63;0.40;;;9.10;99.90;;;;;;5066801;28;20036;-50
2023/12/23 05:13:09;;;;;;;0.50;0.50;;;9.10;99.90;;;;;;5065267;28;20029;-50
2023/12/23 05:15:35;;;;;;;2.03;0.90;;;9.10;99.90;;;;;;5066558;28;20033;-51
2023/12/23 05:18:00;;;;;;;1.05;0.40;;;9.10;99.90;;;;;;5066424;28;20033;-50
2023/12/23 05:20:26;;;;;;;0.60;0.50;;;9.10;99.90;;;;;;5065326;28;20028;-50
2023/12/23 05:22:52;;;;;;;0.93;0.60;;;9.10;99.90;;;;;;5065149;28;20084;-50
2023/12/23 05:25:18;;;;;;;0.50;0.40;;;9.10;99.90;;;;;;5065321;28;20031;-50
2023/12/23 05:27:43;;;;;;;0.73;0.30;;;9.10;99.90;;;;;;5065021;28;20055;-50
2023/12/23 05:30:09;;;;;;;0.32;0.30;;;9.10;99.90;;;;;;5066518;28;20036;-49
2023/12/23 05:32:35;;;;;;;0.55;0.40;;;9.10;99.90;;;;;;5064954;28;20378;-50
2023/12/23 05:35:01;;;;;;;0.30;0.30;;;9.10;99.90;;;;;;5064746;28;20032;-50
2023/12/23 05:37:26;;;;;;;0.88;0.30;;;9.10;99.90;;;;;;5066294;28;20034;-50
2023/12/23 05:39:52;;;;;;;1.13;0.60;;;9.10;99.90;;;;;;5066470;28;20025;-50
2023/12/23 05:42:18;;;;;;;2.03;0.70;;;9.10;99.90;;;;;;5066801;28;20044;-50
2023/12/23 05:44:43;;;;;;;1.73;0.80;;;9.10;99.90;;;;;;5065944;28;20428;-50
2023/12/23 05:47:09;;;;;;;0.90;0.57;;;9.10;99.90;;;;;;5065090;28;20029;-50
2023/12/23 05:49:34;;;;;;;0.88;0.52;;;9.10;99.90;;;;;;5066143;28;20035;-50
2023/12/23 05:52:00;;;;;;;1.05;0.63;;;9.10;99.90;;;;;;5066284;28;20051;-50
2023/12/23 05:54:26;;;;;;;4.10;0.70;;;9.10;99.90;;;;;;5064714;28;20480;-50
2023/12/23 05:56:51;;;;;;;1.35;0.63;;;9.10;99.90;;;;;;5065877;28;20040;-50
2023/12/23 05:59:17;;;;;;;3.20;0.70;;;9.10;99.90;;;;;;5064640;28;20025;-50
2023/12/23 06:01:42;;;;;;;1.15;0.70;;;9.10;99.90;;;;;;5066062;28;20037;-50
2023/12/23 06:04:08;;;;;;;2.33;0.70;;;9.10;99.90;;;;;;5066105;28;20021;-50
2023/12/23 06:06:34;;;;;;;2.50;0.98;;;9.10;99.90;;;;;;5064854;28;20519;-50
2023/12/23 06:08:59;;;;;;;2.25;1.00;;;9.10;99.90;;;;;;5067199;28;20033;-50
2023/12/23 06:11:25;;;;;;;2.35;0.68;;;9.10;99.90;;;;;;5070190;28;20465;-50
2023/12/23 06:13:51;;;;;;;1.70;0.80;;;9.10;99.90;;;;;;5069836;28;20036;-50
2023/12/23 06:16:16;;;;;;;2.80;0.70;;;9.10;99.90;;;;;;5068664;28;20093;-49
2023/12/23 06:18:42;;;;;;;5.10;0.75;;;9.10;99.90;;;;;;5068962;28;20021;-50
2023/12/23 06:21:07;;;;;;;3.83;0.93;;;9.10;99.90;;;;;;5068807;28;20033;-50
2023/12/23 06:23:33;;;;;;;1.58;0.65;;;9.10;99.90;;;;;;5068402;28;20497;-50
2023/12/23 06:25:59;;;;;;;1.40;0.63;;;9.10;99.90;;;;;;5069778;28;20029;-50
2023/12/23 06:28:24;;;;;;;1.25;0.63;;;9.10;99.90;;;;;;5069766;28;20033;-50
2023/12/23 06:30:50;;;;;;;1.08;0.60;;;9.10;99.90;;;;;;5069814;28;20025;-50
2023/12/23 06:33:15;;;;;;;2.67;0.80;;;9.10;99.90;;;;;;5051629;28;20047;-50
2023/12/23 06:35:41;;;;;;;1.75;0.40;;;9.10;99.90;;;;;;5068260;28;20510;-50
2023/12/23 06:38:06;;;;;;;0.68;0.50;;;9.10;99.90;;;;;;5068326;28;20025;-50
2023/12/23 06:40:32;;;;;;;1.15;0.63;;;9.10;99.90;;;;;;5069248;28;20048;-50
2023/12/23 06:42:58;;;;;;;1.65;0.60;;;9.10;99.90;;;;;;5069335;28;20079;-50
2023/12/23 06:45:23;;;;;;;1.70;0.70;;;9.10;99.90;;;;;;5068188;28;20047;-50
2023/12/23 06:47:49;;;;;;;0.60;0.45;;;9.10;99.90;;;;;;5067974;28;20029;-50
2023/12/23 06:50:15;;;;;;;1.70;0.70;;;9.10;99.90;;;;;;5068141;28;20100;-50
2023/12/23 06:52:41;;;;;;;1.40;0.55;;;9.10;99.90;;;;;;5068247;28;20029;-50
2023/12/23 06:55:07;;;;;;;1.50;0.57;;;9.10;99.90;;;;;;5069180;28;20087;-50
2023/12/23 06:57:32;;;;;;;2.65;0.63;;;9.10;99.90;;;;;;5069203;28;20025;-50
2023/12/23 06:59:59;;;;;;;3.55;0.85;;;9.10;99.90;;;;;;5067705;28;20036;-50
2023/12/23 07:02:25;;;;;;;1.58;0.50;;;9.10;99.90;;;;;;5069088;28;20022;-50
2023/12/23 07:04:51;;;;;;;1.27;0.63;;;9.10;99.90;;;;;;5067974;28;20029;-50
2023/12/23 07:07:17;;;;;;;0.45;0.30;;;9.10;99.90;;;;;;5068926;28;20041;-50
2023/12/23 07:09:43;;;;;;;1.55;0.70;;;9.10;99.90;;;;;;5067695;28;20032;-50
2023/12/23 07:12:09;;;;;;;0.65;0.47;;;9.10;99.90;;;;;;5067734;28;20033;-50
2023/12/23 07:14:34;;;;;;;0.93;0.50;;;9.10;99.90;;;;;;5068856;28;20033;-50
2023/12/23 07:17:00;;;;;;;0.73;0.60;;;9.10;99.90;;;;;;5068782;28;20033;-50
2023/12/23 07:19:26;;;;;;;0.73;0.45;;;9.10;99.90;;;;;;5066500;28;20088;-50
2023/12/23 07:21:53;;;;;;;2.08;0.55;;;9.10;99.90;;;;;;5067599;28;20029;-50
2023/12/23 07:24:21;;;;;;;1.45;0.55;;;9.10;99.90;;;;;;5067372;28;20033;-50
2023/12/23 07:26:47;;;;;;;1.15;0.47;;;9.10;99.90;;;;;;5067470;28;20029;-50
2023/12/23 07:29:13;;;;;;;2.40;0.40;;;9.10;99.90;;;;;;5067227;28;20060;-50
2023/12/23 07:31:38;;;;;;;0.47;0.40;;;9.00;99.90;;;;;;5067219;28;20033;-50
2023/12/23 07:34:04;;;;;;;0.88;0.40;;;9.00;99.90;;;;;;5068220;28;20033;-50
2023/12/23 07:36:29;;;;;;;0.65;0.50;;;9.00;99.90;;;;;;5067299;28;20025;-50
2023/12/23 07:38:55;;;;;;;0.63;0.30;;;9.10;99.90;;;;;;5067132;28;20023;-50
2023/12/23 07:41:20;;;;;;;1.30;0.60;;;9.00;99.90;;;;;;5068234;28;20477;-50
2023/12/23 07:43:46;;;;;;;1.13;0.50;;;9.00;99.90;;;;;;5067170;28;20021;-50
2023/12/23 07:46:12;;;;;;;0.38;0.35;;;9.00;99.90;;;;;;5068209;28;20040;-50
2023/12/23 07:48:37;;;;;;;0.35;0.22;;;9.00;99.90;;;;;;5066970;28;20033;-50
2023/12/23 07:51:07;;;;;;;0.55;0.20;;;9.00;99.90;;;;;;5066409;28;20033;-50
2023/12/23 07:53:33;;;;;;;1.35;0.40;;;9.00;99.90;;;;;;5067162;28;20060;-50
2023/12/23 07:55:58;;;;;;;1.00;0.40;;;9.00;99.90;;;;;;5066933;28;20037;-50
2023/12/23 07:58:24;;;;;;;0.52;0.40;;;9.00;99.90;;;;;;5069203;28;20031;-50
2023/12/23 08:00:49;;;;;;;0.28;0.22;;;9.00;99.90;;;;;;5085448;28;20496;-50
2023/12/23 08:03:15;;;;;;;0.82;0.40;;;9.00;99.90;;;;;;5084823;28;20031;-50
2023/12/23 08:05:40;;;;;;;0.40;0.30;;;9.00;99.90;;;;;;5067027;28;20071;-50
2023/12/23 08:08:09;;;;;;;0.43;0.40;;;9.00;99.90;;;;;;5065000;28;20060;-50
2023/12/23 08:10:34;;;;;;;0.88;0.30;;;9.00;99.90;;;;;;5061551;28;20029;-50
2023/12/23 08:13:00;;;;;;;0.65;0.50;;;9.00;99.90;;;;;;5060768;28;20472;-50
2023/12/23 08:15:25;;;;;;;0.40;0.30;;;9.10;99.90;;;;;;5060968;28;20121;-50
2023/12/23 08:17:51;;;;;;;2.45;0.50;;;9.10;99.90;;;;;;5063662;28;20036;-50
2023/12/23 08:20:17;;;;;;;1.95;0.80;;;9.00;99.90;;;;;;5062160;28;20024;-50
2023/12/23 08:22:42;;;;;;;3.50;0.60;;;9.00;99.90;;;;;;5062201;28;20033;-50
2023/12/23 08:25:08;;;;;;;1.67;0.63;;;9.00;99.90;;;;;;5062337;28;20032;-50
2023/12/23 08:27:34;;;;;;;6.70;0.85;;;9.10;99.90;;;;;;5062549;28;20029;-50
2023/12/23 08:30:00;;;;;;;9.82;1.02;;;9.10;99.90;;;;;;5061366;28;20056;-50
2023/12/23 08:32:25;;;;;;;4.75;1.00;;;9.10;99.90;;;;;;5061309;28;20040;-50
2023/12/23 08:34:51;;;;;;;8.75;1.10;;;9.10;99.90;;;;;;5043020;28;20041;-51
2023/12/23 08:37:16;;;;;;;3.22;0.80;;;9.10;99.90;;;;;;5061157;28;20045;-50
2023/12/23 08:39:42;;;;;;;1.27;0.75;;;9.10;99.90;;;;;;5062226;28;21182;-50
2023/12/23 08:42:07;;;;;;;39.53;3.50;;;9.10;99.90;;;;;;5061409;28;20049;-50
2023/12/23 08:44:33;;;;;;;10.07;1.05;;;9.10;99.90;;;;;;5060730;28;20029;-50
2023/12/23 08:46:59;;;;;;;5.88;0.63;;;9.10;99.90;;;;;;5060782;28;20032;-50
2023/12/23 08:49:24;;;;;;;11.15;0.95;;;9.10;99.90;;;;;;5060658;28;20021;-51
2023/12/23 08:51:50;;;;;;;8.88;1.23;;;9.10;99.90;;;;;;5061258;28;20032;-50
2023/12/23 08:54:16;;;;;;;4.05;0.90;;;9.10;99.90;;;;;;5060833;28;20025;-50
2023/12/23 08:56:41;;;;;;;7.07;0.65;;;9.10;99.90;;;;;;5062677;28;20024;-50
2023/12/23 08:59:07;;;;;;;4.07;0.77;;;9.10;99.90;;;;;;5065659;28;20468;-50
2023/12/23 09:01:33;;;;;;;7.32;0.70;;;9.10;99.90;;;;;;5065371;28;20036;-50
2023/12/23 09:03:58;;;;;;;9.13;1.02;;;9.10;99.90;;;;;;5063625;28;20529;-50
2023/12/23 09:06:24;;;;;;;18.23;1.65;;;9.10;99.90;;;;;;5063031;28;20393;-48
2023/12/23 09:08:52;;;;;;;22.63;2.15;;;9.10;99.90;;;;;;5061329;28;20044;-50
2023/12/23 09:11:18;;;;;;;19.05;1.75;;;9.10;99.90;;;;;;5059208;28;20040;-50
2023/12/23 09:13:43;;;;;;;8.10;1.00;;;9.10;99.90;;;;;;5060661;28;20420;-50
2023/12/23 09:16:09;;;;;;;17.50;1.23;;;9.10;99.90;;;;;;5058046;28;20040;-50
2023/12/23 09:18:35;;;;;;;17.15;1.58;;;9.10;99.90;;;;;;5060693;28;20048;-50
2023/12/23 09:21:00;;;;;;;12.77;1.58;;;9.20;99.90;;;;;;5061859;28;20055;-50
2023/12/23 09:23:26;;;;;;;16.35;2.00;;;9.20;99.90;;;;;;5060868;28;20025;-50
2023/12/23 09:25:51;;;;;;;27.27;2.15;;;9.20;99.90;;;;;;5056362;28;20035;-50
2023/12/23 09:28:17;;;;;;;25.08;2.60;;;9.20;99.90;;;;;;5057995;28;20044;-50
2023/12/23 09:30:43;;;;;;;15.80;1.77;;;9.30;99.90;;;;;;5061125;28;20033;-50
2023/12/23 09:33:08;;;;;;;29.48;3.05;;;9.20;99.90;;;;;;5061352;28;20044;-50
2023/12/23 09:35:34;;;;;;;20.48;2.10;;;9.20;99.90;;;;;;5063200;28;20056;-50
2023/12/23 09:38:00;;;;;;;35.28;3.45;;;9.30;99.90;;;;;;5065753;28;20029;-50
2023/12/23 09:40:25;;;;;;;30.50;4.07;;;9.30;99.90;;;;;;5065733;28;20025;-50
2023/12/23 09:42:51;;;;;;;48.20;3.47;;;9.30;99.90;;;;;;5062434;28;20026;-50
2023/12/23 09:45:16;;;;;;;30.52;3.17;;;9.30;99.90;;;;;;5065552;28;20025;-50
2023/12/23 09:47:42;;;;;;;36.53;3.55;;;9.30;99.80;;;;;;5063763;28;20423;-50
2023/12/23 09:50:08;;;;;;;31.05;3.88;;;9.40;99.50;;;;;;5058803;28;20036;-50
2023/12/23 09:52:33;;;;;;;31.45;5.18;;;9.40;99.40;;;;;;5056967;28;20124;-50
2023/12/23 09:54:59;;;;;;;23.10;2.60;;;9.40;99.50;;;;;;5057872;28;20516;-50
2023/12/23 09:57:25;;;;;;;26.50;3.65;;;9.40;99.50;;;;;;5057124;28;20028;-50
2023/12/23 09:59:51;;;;;;;43.90;5.30;;;9.40;99.50;;;;;;5060888;28;20029;-50
2023/12/23 10:02:17;;;;;;;39.28;4.53;;;9.40;99.30;;;;;;5068890;28;20035;-50
2023/12/23 10:04:43;;;;;;;50.90;4.63;;;9.40;99.40;;;;;;5061342;28;20103;-50
2023/12/23 10:07:08;;;;;;;48.38;6.28;;;9.40;99.30;;;;;;5064817;28;20045;-50
2023/12/23 10:09:34;;;;;;;70.43;7.55;;;9.50;99.40;;;;;;5065246;28;20028;-50
2023/12/23 10:12:01;;;;;;;107.70;10.30;;;9.50;99.50;;;;;;5046017;28;20566;-50
2023/12/23 10:14:27;;;;;;;172.93;15.57;;;9.50;99.60;;;;;;5063231;28;20039;-50
2023/12/23 10:16:53;;;;;;;232.40;17.25;;;9.60;99.60;;;;;;5063201;28;20037;-50
2023/12/23 10:19:19;;;;;;;218.02;19.70;;;9.60;99.50;;;;;;5065201;28;20031;-50
2023/12/23 10:21:45;;;;;;;122.55;10.38;;;9.60;99.50;;;;;;5063315;28;20029;-59
2023/12/23 10:24:10;;;;;;;111.85;10.52;;;9.70;99.60;;;;;;5062993;28;20033;-58
2023/12/23 10:26:36;;;;;;;99.32;9.93;;;9.70;99.70;;;;;;5094650;28;20056;-58
2023/12/23 10:29:03;;;;;;;241.10;21.05;;;9.70;99.50;;;;;;5061556;28;20039;-58
2023/12/23 10:31:30;;;;;;;123.20;11.73;;;9.70;99.40;;;;;;5062085;28;20040;-59
2023/12/23 10:33:59;;;;;;;192.88;15.45;;;9.70;99.30;;;;;;5079745;28;20413;-58
2023/12/23 10:36:25;;;;;;;135.52;15.05;;;9.80;99.70;;;;;;5095035;28;20136;-58
2023/12/23 10:38:53;;;;;;;134.00;13.88;;;9.80;99.60;;;;;;5097335;28;20013;-58
2023/12/23 10:41:38;;;;;;;153.45;11.82;;;9.80;99.50;;;;;;5062396;28;20097;-58
2023/12/23 10:44:04;;;;;;;129.25;12.38;;;9.90;99.30;;;;;;5067145;28;20060;-58
2023/12/23 10:46:30;;;;;;;135.80;13.45;;;9.90;99.00;;;;;;5087651;28;20040;-58
2023/12/23 10:48:56;;;;;;;191.80;17.05;;;9.90;98.90;;;;;;5044149;28;20029;-58
2023/12/23 10:51:21;;;;;;;232.18;20.38;;;10.00;99.10;;;;;;5083848;28;20035;-58
2023/12/23 10:53:47;;;;;;;153.98;15.13;;;10.00;99.10;;;;;;5073600;28;20032;-59
2023/12/23 10:56:13;;;;;;;138.45;15.18;;;10.10;99.00;;;;;;5099611;28;20044;-58
2023/12/23 10:58:39;;;;;;;238.55;25.75;;;10.00;98.80;;;;;;5084110;28;20047;-59
2023/12/23 11:01:05;;;;;;;161.13;15.73;;;10.00;98.50;;;;;;5085003;28;20029;-58
2023/12/23 11:03:32;;;;;;;186.98;19.55;;;10.10;98.60;;;;;;5085880;28;20437;-58
2023/12/23 11:05:58;;;;;;;227.02;21.95;;;10.00;98.60;;;;;;5065990;28;20104;-59
2023/12/23 11:08:23;;;;;;;154.32;15.90;;;10.10;98.70;;;;;;5070384;28;20060;-58
2023/12/23 11:10:49;;;;;;;194.27;18.63;;;10.10;98.60;;;;;;5063706;28;20064;-58
2023/12/23 11:13:15;;;;;;;258.05;25.65;;;10.10;98.30;;;;;;5063326;28;20033;-58
2023/12/23 11:15:42;;;;;;;146.10;15.38;;;10.10;98.40;;;;;;5065250;28;20052;-58
2023/12/23 11:18:09;;;;;;;167.45;15.82;;;10.10;98.50;;;;;;5083430;28;20159;-58
2023/12/23 11:20:35;;;;;;;185.07;15.90;;;10.10;98.30;;;;;;5066190;28;20028;-59
2023/12/23 11:23:19;;;;;;;253.27;23.15;;;10.10;98.20;;;;;;5067617;28;20075;-58
2023/12/23 11:25:45;;;;;;;203.40;17.92;;;10.10;98.20;;;;;;5066101;28;20397;-58
2023/12/23 11:28:11;;;;;;;171.80;17.42;;;10.10;98.30;;;;;;5067639;28;20051;-58
2023/12/23 11:30:49;;;;;;;193.63;18.33;;;10.10;98.10;;;;;;5065730;28;20059;-58
2023/12/23 11:33:17;;;;;;;146.55;16.48;;;10.10;98.00;;;;;;5064559;28;20033;-58
2023/12/23 11:35:47;;;;;;;137.82;14.52;;;10.10;97.80;;;;;;5065702;28;20029;-58
2023/12/23 11:38:13;;;;;;;154.35;17.10;;;10.20;97.70;;;;;;5066334;28;20025;-59
2023/12/23 11:40:38;;;;;;;150.40;15.73;;;10.20;97.80;;;;;;5065091;28;20028;-58
2023/12/23 11:43:04;;;;;;;176.30;17.55;;;10.20;97.90;;;;;;5048139;28;20064;-57
2023/12/23 11:45:30;;;;;;;156.55;18.20;;;10.20;97.70;;;;;;5059074;28;20032;-58
2023/12/23 11:47:56;;;;;;;166.88;15.75;;;10.20;97.90;;;;;;5067032;28;20119;-58
2023/12/23 11:50:22;;;;;;;167.00;17.75;;;10.20;97.70;;;;;;5065054;28;20025;-58
2023/12/23 11:52:47;;;;;;;120.60;13.10;;;10.30;97.50;;;;;;5066617;28;20690;-58
2023/12/23 11:55:13;;;;;;;146.25;17.33;;;10.30;97.30;;;;;;5094911;28;20025;-58
2023/12/23 11:57:38;;;;;;;149.10;17.95;;;10.30;97.10;;;;;;5065076;28;20025;-58
2023/12/23 12:00:05;;;;;;;206.73;20.40;;;10.30;97.20;;;;;;5099100;28;20044;-58
2023/12/23 12:02:30;;;;;;;277.98;22.95;;;10.30;97.20;;;;;;5063083;28;20108;-58
2023/12/23 12:04:56;;;;;;;190.00;18.38;;;10.30;97.20;;;;;;5064209;28;20484;-59
2023/12/23 12:07:22;;;;;;;153.13;16.95;;;10.30;97.00;;;;;;5064884;28;20429;-58
2023/12/23 12:09:49;;;;;;;150.25;15.93;;;10.30;97.10;;;;;;5064826;28;20108;-58
2023/12/23 12:12:14;;;;;;;175.80;20.02;;;10.30;97.10;;;;;;5081485;28;20072;-59
2023/12/23 12:14:40;;;;;;;150.30;16.75;;;10.40;97.00;;;;;;5081445;28;20025;-58
2023/12/23 12:17:09;;;;;;;187.48;19.27;;;10.40;96.80;;;;;;5098818;28;20096;-59
2023/12/23 12:19:35;;;;;;;193.65;18.33;;;10.40;96.70;;;;;;5094517;28;20128;-58
2023/12/23 12:22:01;;;;;;;178.35;15.85;;;10.40;96.90;;;;;;5056092;28;20092;-58
2023/12/23 12:24:26;;;;;;;143.63;15.13;;;10.40;96.70;;;;;;5060651;28;20021;-58
2023/12/23 12:26:53;;;;;;;157.50;15.45;;;10.50;96.50;;;;;;5054345;28;20042;-58
2023/12/23 12:29:22;;;;;;;148.02;15.43;;;10.50;96.30;;;;;;5095792;28;20421;-59
2023/12/23 12:31:49;;;;;;;142.07;14.55;;;10.50;96.10;;;;;;5054421;28;20025;-58
2023/12/23 12:34:15;;;;;;;128.88;13.02;;;10.50;96.10;;;;;;5054885;28;20944;-58
2023/12/23 12:36:40;;;;;;;150.65;13.73;;;10.50;96.00;;;;;;5053680;28;20075;-59
2023/12/23 12:39:06;;;;;;;143.55;14.57;;;10.50;96.10;;;;;;5071036;28;20029;-58
2023/12/23 12:41:37;;;;;;;167.13;13.20;;;10.50;96.00;;;;;;5057533;28;20042;-59